createdAt,value
2023-08-29T00:02:23.331Z,90.23
2023-08-29T00:04:49.761Z,90.27
2023-08-29T00:07:16.205Z,90.23
2023-08-29T00:09:42.752Z,90.39
2023-08-29T00:12:09.361Z,90.35
2023-08-29T00:14:35.832Z,90.57
2023-08-29T00:17:02.234Z,90.28
2023-08-29T00:19:28.675Z,90.26
2023-08-29T00:21:55.065Z,90.43
2023-08-29T00:24:21.403Z,90.73
2023-08-29T00:26:47.801Z,90.27
2023-08-29T00:29:14.259Z,90.48
2023-08-29T00:31:40.737Z,90.46
2023-08-29T00:34:07.178Z,90.51
2023-08-29T00:36:33.558Z,90.32
2023-08-29T00:39:00.127Z,90.29
2023-08-29T00:41:26.505Z,90.44
2023-08-29T00:43:52.905Z,90.53
2023-08-29T00:46:20.640Z,90.56
2023-08-29T00:48:47.971Z,90.42
2023-08-29T00:51:14.422Z,90.34
2023-08-29T00:53:41.009Z,90.64
2023-08-29T00:56:07.408Z,90.45
2023-08-29T00:58:35.012Z,90.33
2023-08-29T01:01:01.514Z,90.18
2023-08-29T01:03:28.088Z,90.41
2023-08-29T01:05:54.601Z,90.51
2023-08-29T01:08:21.080Z,90.74
2023-08-29T01:11:17.210Z,90.34
2023-08-29T01:14:07.536Z,90.65
2023-08-29T01:16:41.511Z,90.23
2023-08-29T01:19:16.883Z,90.29
2023-08-29T01:21:50.258Z,90.26
2023-08-29T01:24:27.350Z,90.32
2023-08-29T01:26:55.873Z,90.17
2023-08-29T01:29:23.409Z,90.42
2023-08-29T01:31:51.414Z,90.32
2023-08-29T01:34:18.094Z,90.30
2023-08-29T01:36:44.740Z,90.30
2023-08-29T01:39:11.418Z,90.44
2023-08-29T01:41:37.805Z,90.44
2023-08-29T01:44:06.355Z,90.26
2023-08-29T01:46:32.911Z,90.49
2023-08-29T01:49:02.403Z,90.52
2023-08-29T01:51:29.224Z,90.57
2023-08-29T01:53:55.971Z,90.45
2023-08-29T01:56:25.381Z,90.53
2023-08-29T01:58:54.596Z,90.67
2023-08-29T02:01:23.842Z,90.57
2023-08-29T02:03:51.427Z,90.29
2023-08-29T02:06:17.888Z,90.42
2023-08-29T02:08:45.627Z,90.39
2023-08-29T02:11:12.057Z,90.40
2023-08-29T02:13:38.413Z,90.28
2023-08-29T02:16:05.014Z,90.54
2023-08-29T02:18:31.412Z,90.68
2023-08-29T02:20:57.785Z,90.54
2023-08-29T02:23:24.237Z,90.18
2023-08-29T02:26:04.871Z,90.70
2023-08-29T02:28:34.960Z,90.37
2023-08-29T02:31:10.948Z,90.30
2023-08-29T02:33:39.342Z,90.39
2023-08-29T02:36:06.570Z,90.45
2023-08-29T02:38:34.337Z,90.62
2023-08-29T02:41:01.019Z,90.65
2023-08-29T02:43:30.674Z,90.56
2023-08-29T02:45:58.304Z,90.35
2023-08-29T02:48:25.293Z,90.51
2023-08-29T02:50:52.142Z,90.43
2023-08-29T02:53:19.798Z,90.25
2023-08-29T02:55:46.695Z,90.79
2023-08-29T02:58:13.356Z,90.73
2023-08-29T03:00:39.854Z,90.49
2023-08-29T03:03:06.383Z,90.47
2023-08-29T03:05:33.532Z,90.50
2023-08-29T03:08:09.413Z,90.62
2023-08-29T03:10:37.080Z,90.73
2023-08-29T03:13:03.958Z,90.48
2023-08-29T03:15:34.419Z,90.50
2023-08-29T03:18:01.455Z,90.64
2023-08-29T03:20:28.250Z,90.41
2023-08-29T03:22:54.753Z,90.53
2023-08-29T03:25:23.253Z,90.83
2023-08-29T03:27:50.237Z,90.30
2023-08-29T03:30:16.949Z,90.59
2023-08-29T03:32:43.437Z,90.80
2023-08-29T03:35:09.825Z,90.68
2023-08-29T03:37:36.235Z,90.72
2023-08-29T03:40:03.990Z,90.58
2023-08-29T03:42:30.352Z,90.56
2023-08-29T03:44:56.858Z,90.43
2023-08-29T03:47:25.058Z,90.60
2023-08-29T03:49:51.517Z,90.55
2023-08-29T03:52:25.233Z,90.45
2023-08-29T03:54:56.709Z,90.69
2023-08-29T03:57:29.481Z,90.52
2023-08-29T03:59:56.650Z,90.34
2023-08-29T04:02:23.115Z,90.44
2023-08-29T04:04:52.471Z,90.49
2023-08-29T04:07:19.728Z,90.70
2023-08-29T04:09:46.184Z,90.68
2023-08-29T04:12:12.607Z,90.85
2023-08-29T04:14:38.946Z,90.75
2023-08-29T04:17:05.372Z,90.57
2023-08-29T04:19:31.811Z,90.75
2023-08-29T04:21:58.167Z,90.35
2023-08-29T04:24:26.717Z,90.50
2023-08-29T04:26:53.969Z,90.65
2023-08-29T04:29:20.384Z,90.55
2023-08-29T04:31:48.060Z,90.30
2023-08-29T04:34:14.488Z,90.45
2023-08-29T04:36:40.983Z,90.65
2023-08-29T04:39:07.352Z,90.45
2023-08-29T04:41:33.753Z,90.69
2023-08-29T04:44:00.426Z,90.25
2023-08-29T04:46:26.797Z,90.70
2023-08-29T04:48:53.178Z,90.56
2023-08-29T04:51:19.547Z,90.23
2023-08-29T04:53:48.062Z,90.48
2023-08-29T04:56:14.447Z,90.25
2023-08-29T04:58:40.824Z,90.39
2023-08-29T05:01:07.261Z,90.34
2023-08-29T05:03:33.859Z,90.51
2023-08-29T05:06:00.262Z,90.52
2023-08-29T05:08:26.671Z,90.36
2023-08-29T05:10:53.020Z,90.37
2023-08-29T05:13:19.412Z,90.35
2023-08-29T05:15:45.807Z,90.71
2023-08-29T05:18:12.315Z,90.45
2023-08-29T05:20:39.407Z,90.44
2023-08-29T05:23:06.074Z,90.67
2023-08-29T05:25:32.564Z,90.63
2023-08-29T05:27:58.960Z,90.53
2023-08-29T05:30:25.359Z,90.68
2023-08-29T05:32:51.785Z,90.67
2023-08-29T05:35:18.290Z,90.66
2023-08-29T05:37:45.432Z,90.44
2023-08-29T05:40:14.823Z,90.51
2023-08-29T05:42:41.231Z,90.69
2023-08-29T05:45:09.784Z,90.42
2023-08-29T05:47:36.273Z,90.55
2023-08-29T05:50:02.762Z,90.36
2023-08-29T05:52:29.542Z,90.60
2023-08-29T05:54:57.009Z,90.37
2023-08-29T05:57:23.390Z,90.45
2023-08-29T05:59:50.425Z,90.14
2023-08-29T06:02:16.848Z,90.19
2023-08-29T06:04:43.240Z,90.34
2023-08-29T06:07:10.486Z,90.43
2023-08-29T06:09:37.527Z,90.15
2023-08-29T06:12:04.230Z,90.43
2023-08-29T06:14:32.003Z,90.59
2023-08-29T06:16:58.872Z,90.21
2023-08-29T06:19:25.400Z,90.45
2023-08-29T06:21:52.219Z,90.24
2023-08-29T06:24:18.691Z,90.37
2023-08-29T06:26:45.047Z,90.20
2023-08-29T06:29:11.780Z,90.46
2023-08-29T06:31:38.187Z,90.36
2023-08-29T06:34:04.945Z,90.33
2023-08-29T06:36:32.077Z,89.79
2023-08-29T06:38:58.418Z,89.82
2023-08-29T06:41:25.492Z,89.95
2023-08-29T06:43:51.830Z,89.72
2023-08-29T06:46:18.534Z,89.92
2023-08-29T06:48:44.967Z,90.07
2023-08-29T06:51:11.373Z,90.06
2023-08-29T06:53:38.511Z,90.36
2023-08-29T06:56:05.300Z,89.81
2023-08-29T06:58:31.968Z,90.33
2023-08-29T07:00:58.372Z,89.98
2023-08-29T07:03:24.934Z,89.45
2023-08-29T07:05:51.460Z,89.43
2023-08-29T07:08:17.811Z,90.05
2023-08-29T07:10:44.389Z,90.20
2023-08-29T07:13:10.753Z,89.82
2023-08-29T07:15:37.177Z,89.92
2023-08-29T07:18:06.799Z,89.12
2023-08-29T07:20:34.725Z,90.31
2023-08-29T07:23:01.589Z,90.07
2023-08-29T07:25:42.284Z,89.81
2023-08-29T07:28:10.581Z,90.30
2023-08-29T07:30:47.733Z,89.50
2023-08-29T07:33:15.312Z,90.35
2023-08-29T07:35:43.355Z,89.75
2023-08-29T07:38:10.807Z,90.23
2023-08-29T07:40:37.653Z,89.93
2023-08-29T07:43:05.880Z,89.59
2023-08-29T07:45:33.131Z,90.02
2023-08-29T07:48:00.795Z,89.99
2023-08-29T07:50:28.459Z,89.81
2023-08-29T07:52:56.018Z,89.32
2023-08-29T07:55:22.467Z,90.23
2023-08-29T07:57:49.688Z,90.14
2023-08-29T08:00:17.418Z,89.54
2023-08-29T08:02:44.806Z,89.73
2023-08-29T08:05:16.282Z,88.81
2023-08-29T08:07:45.375Z,88.26
2023-08-29T08:10:13.682Z,88.62
2023-08-29T08:12:41.682Z,88.70
2023-08-29T08:15:09.609Z,88.46
2023-08-29T08:17:37.504Z,88.75
2023-08-29T08:20:09.516Z,88.26
2023-08-29T08:22:41.470Z,89.14
2023-08-29T08:25:11.686Z,89.70
2023-08-29T08:27:42.583Z,88.94
2023-08-29T08:30:12.324Z,88.64
2023-08-29T08:32:38.848Z,87.45
2023-08-29T08:35:08.679Z,87.11
2023-08-29T08:37:36.397Z,87.01
2023-08-29T08:40:11.743Z,87.79
2023-08-29T08:42:40.888Z,88.20
2023-08-29T08:45:08.590Z,87.88
2023-08-29T08:47:36.369Z,86.20
2023-08-29T08:50:04.232Z,86.01
2023-08-29T08:52:35.048Z,85.59
2023-08-29T08:55:05.694Z,85.92
2023-08-29T08:57:33.197Z,85.47
2023-08-29T08:59:59.592Z,87.09
2023-08-29T09:02:27.225Z,87.49
2023-08-29T09:04:54.858Z,87.02
2023-08-29T09:07:21.285Z,86.86
2023-08-29T09:10:11.630Z,86.90
2023-08-29T09:12:50.526Z,85.85
2023-08-29T09:15:21.195Z,85.54
2023-08-29T09:17:52.725Z,85.74
2023-08-29T09:20:20.007Z,85.46
2023-08-29T09:22:47.276Z,85.24
2023-08-29T09:25:15.615Z,84.92
2023-08-29T09:27:46.766Z,83.14
2023-08-29T09:30:15.411Z,85.18
2023-08-29T09:32:50.457Z,85.08
2023-08-29T09:35:20.638Z,84.48
2023-08-29T09:37:52.645Z,82.27
2023-08-29T09:40:36.259Z,83.75
2023-08-29T09:43:05.672Z,83.17
2023-08-29T09:45:33.939Z,83.13
2023-08-29T09:48:05.200Z,81.62
2023-08-29T09:50:32.416Z,81.46
2023-08-29T09:53:00.791Z,82.59
2023-08-29T09:55:27.816Z,81.90
2023-08-29T09:57:54.966Z,81.02
2023-08-29T10:00:22.189Z,81.60
2023-08-29T10:02:51.715Z,79.05
2023-08-29T10:05:25.098Z,78.52
2023-08-29T10:07:56.671Z,77.09
2023-08-29T10:10:25.153Z,75.17
2023-08-29T10:12:52.183Z,78.29
2023-08-29T10:15:19.685Z,77.17
2023-08-29T10:17:49.700Z,75.22
2023-08-29T10:20:18.365Z,75.34
2023-08-29T10:22:47.666Z,74.73
2023-08-29T10:25:19.709Z,75.07
2023-08-29T10:27:46.681Z,72.65
2023-08-29T10:30:13.477Z,76.18
2023-08-29T10:32:40.622Z,74.84
2023-08-29T10:35:08.690Z,71.59
2023-08-29T10:37:35.296Z,72.21
2023-08-29T10:40:12.922Z,72.53
2023-08-29T10:42:58.498Z,70.77
2023-08-29T10:45:58.185Z,70.81
2023-08-29T10:48:31.180Z,68.32
2023-08-29T10:51:18.371Z,68.45
2023-08-29T10:53:57.982Z,68.37
2023-08-29T10:56:28.881Z,71.29
2023-08-29T10:58:56.140Z,69.99
2023-08-29T11:01:25.336Z,70.15
2023-08-29T11:03:52.121Z,68.41
2023-08-29T11:06:20.831Z,68.98
2023-08-29T11:08:47.472Z,66.74
2023-08-29T11:11:19.806Z,65.84
2023-08-29T11:14:02.702Z,65.48
2023-08-29T11:16:31.601Z,64.49
2023-08-29T11:19:07.838Z,65.48
2023-08-29T11:21:34.445Z,64.76
2023-08-29T11:24:14.853Z,63.82
2023-08-29T11:26:45.841Z,64.27
2023-08-29T11:29:12.283Z,65.57
2023-08-29T11:31:44.045Z,65.02
2023-08-29T11:34:18.885Z,63.45
2023-08-29T11:36:50.355Z,63.17
2023-08-29T11:39:19.680Z,63.70
2023-08-29T11:42:05.315Z,63.68
2023-08-29T11:45:41.900Z,62.82
2023-08-29T11:47:22.787Z,61.30
2023-08-29T11:49:50.357Z,60.38
2023-08-29T11:52:17.906Z,59.71
2023-08-29T11:54:54.046Z,59.59
2023-08-29T11:57:21.835Z,59.69
2023-08-29T11:59:51.484Z,57.25
2023-08-29T12:02:20.509Z,56.71
2023-08-29T12:04:48.782Z,54.98
2023-08-29T12:07:19.277Z,54.55
2023-08-29T12:09:47.745Z,55.27
2023-08-29T12:12:34.731Z,56.75
2023-08-29T12:15:01.739Z,56.02
2023-08-29T12:17:39.900Z,56.26
2023-08-29T12:20:16.541Z,56.22
2023-08-29T12:22:49.058Z,55.46
2023-08-29T12:25:17.220Z,56.54
2023-08-29T12:27:45.587Z,56.26
2023-08-29T12:30:15.861Z,58.96
2023-08-29T12:32:43.913Z,58.74
2023-08-29T12:35:11.363Z,57.90
2023-08-29T12:37:38.775Z,56.04
2023-08-29T12:40:09.851Z,55.55
2023-08-29T12:42:38.777Z,57.98
2023-08-29T12:45:07.302Z,55.71
2023-08-29T12:47:33.802Z,57.20
2023-08-29T12:50:00.236Z,57.70
2023-08-29T12:52:26.717Z,58.98
2023-08-29T12:54:53.129Z,59.91
2023-08-29T12:57:20.784Z,59.15
2023-08-29T12:59:47.243Z,56.45
2023-08-29T13:02:13.660Z,53.30
2023-08-29T13:04:40.402Z,50.08
2023-08-29T13:07:06.894Z,50.58
2023-08-29T13:09:38.115Z,46.96
2023-08-29T13:12:07.487Z,47.06
2023-08-29T13:14:38.636Z,50.32
2023-08-29T13:17:06.433Z,51.71
2023-08-29T13:19:34.037Z,53.39
2023-08-29T13:22:02.400Z,51.75
2023-08-29T13:24:29.843Z,50.25
2023-08-29T13:26:56.352Z,50.82
2023-08-29T13:29:22.961Z,49.54
2023-08-29T13:31:51.025Z,48.16
2023-08-29T13:34:19.808Z,48.08
2023-08-29T13:36:46.417Z,47.38
2023-08-29T13:39:13.672Z,48.42
2023-08-29T13:41:40.974Z,49.68
2023-08-29T13:44:07.348Z,47.67
2023-08-29T13:46:33.752Z,46.31
2023-08-29T13:49:00.125Z,47.82
2023-08-29T13:51:26.515Z,50.80
2023-08-29T13:53:53.842Z,50.65
2023-08-29T13:56:20.212Z,50.68
2023-08-29T13:58:46.644Z,52.76
2023-08-29T14:01:14.922Z,52.34
2023-08-29T14:03:41.498Z,51.16
2023-08-29T14:06:08.192Z,53.55
2023-08-29T14:08:34.935Z,53.20
2023-08-29T14:11:06.412Z,52.38
2023-08-29T14:13:34.361Z,53.50
2023-08-29T14:16:04.260Z,53.37
2023-08-29T14:18:37.190Z,52.08
2023-08-29T14:21:03.949Z,51.86
2023-08-29T14:23:30.559Z,52.50
2023-08-29T14:25:57.678Z,51.23
2023-08-29T14:28:26.846Z,51.32
2023-08-29T14:30:53.904Z,50.75
2023-08-29T14:33:20.367Z,51.28
2023-08-29T14:35:46.814Z,51.70
2023-08-29T14:38:14.216Z,50.59
2023-08-29T14:40:40.829Z,50.68
2023-08-29T14:43:07.231Z,49.57
2023-08-29T14:45:37.656Z,53.08
2023-08-29T14:48:04.641Z,53.45
2023-08-29T14:50:31.414Z,52.11
2023-08-29T14:52:57.778Z,49.58
2023-08-29T14:55:25.933Z,49.06
2023-08-29T14:57:54.262Z,49.59
2023-08-29T15:00:21.026Z,50.05
2023-08-29T15:02:47.632Z,48.75
2023-08-29T15:05:14.522Z,49.92
2023-08-29T15:07:41.895Z,48.71
2023-08-29T15:10:09.257Z,48.54
2023-08-29T15:12:36.028Z,47.17
2023-08-29T15:15:02.499Z,47.62
2023-08-29T15:17:31.247Z,46.28
2023-08-29T15:19:58.268Z,45.90
2023-08-29T15:22:24.867Z,47.34
2023-08-29T15:24:51.333Z,46.21
2023-08-29T15:27:17.915Z,44.91
2023-08-29T15:29:44.367Z,44.31
2023-08-29T15:32:10.981Z,47.18
2023-08-29T15:34:37.564Z,48.11
2023-08-29T15:37:05.581Z,50.89
2023-08-29T15:39:33.682Z,51.33
2023-08-29T15:42:00.378Z,49.77
2023-08-29T15:44:31.081Z,49.58
2023-08-29T15:46:57.929Z,49.90
2023-08-29T15:49:24.276Z,49.59
2023-08-29T15:51:50.716Z,50.88
2023-08-29T15:54:18.987Z,51.45
2023-08-29T15:56:45.604Z,52.14
2023-08-29T15:59:12.081Z,52.20
2023-08-29T16:01:38.555Z,52.79
2023-08-29T16:04:05.968Z,51.33
2023-08-29T16:06:32.435Z,50.09
2023-08-29T16:09:01.005Z,49.94
2023-08-29T16:11:27.730Z,51.80
2023-08-29T16:13:54.282Z,50.72
2023-08-29T16:16:20.677Z,52.29
2023-08-29T16:18:47.292Z,51.71
2023-08-29T16:21:16.469Z,51.16
2023-08-29T16:23:46.284Z,52.04
2023-08-29T16:26:21.944Z,52.99
2023-08-29T16:28:49.085Z,54.58
2023-08-29T16:31:15.516Z,54.79
2023-08-29T16:33:42.082Z,54.47
2023-08-29T16:36:09.084Z,53.05
2023-08-29T16:38:35.663Z,53.16
2023-08-29T16:41:03.212Z,53.08
2023-08-29T16:43:29.695Z,52.98
2023-08-29T16:45:56.539Z,53.31
2023-08-29T16:48:22.958Z,52.79
2023-08-29T16:50:50.929Z,52.12
2023-08-29T16:53:19.030Z,52.42
2023-08-29T16:55:46.107Z,52.93
2023-08-29T16:58:13.032Z,53.17
2023-08-29T17:00:39.786Z,53.12
2023-08-29T17:03:11.099Z,54.29
2023-08-29T17:05:38.779Z,53.74
2023-08-29T17:08:08.873Z,53.53
2023-08-29T17:10:35.688Z,52.52
2023-08-29T17:13:02.230Z,52.98
2023-08-29T17:15:29.029Z,53.87
2023-08-29T17:17:55.506Z,52.50
2023-08-29T17:20:23.599Z,52.82
2023-08-29T17:22:50.462Z,53.27
2023-08-29T17:25:17.345Z,52.80
2023-08-29T17:27:43.936Z,52.93
2023-08-29T17:30:12.607Z,53.94
2023-08-29T17:32:39.340Z,54.08
2023-08-29T17:35:06.231Z,54.45
2023-08-29T17:37:34.502Z,54.63
2023-08-29T17:40:01.777Z,55.75
2023-08-29T17:42:28.190Z,55.56
2023-08-29T17:44:56.719Z,54.90
2023-08-29T17:47:23.268Z,56.13
2023-08-29T17:49:52.023Z,57.02
2023-08-29T17:52:18.498Z,57.43
2023-08-29T17:54:45.039Z,57.77
2023-08-29T17:57:11.597Z,58.38
2023-08-29T17:59:38.180Z,58.74
2023-08-29T18:02:05.276Z,59.58
2023-08-29T18:04:32.157Z,60.28
2023-08-29T18:06:58.589Z,60.40
2023-08-29T18:09:24.946Z,60.66
2023-08-29T18:11:51.364Z,61.02
2023-08-29T18:14:17.724Z,61.96
2023-08-29T18:16:45.238Z,62.84
2023-08-29T18:19:11.867Z,63.85
2023-08-29T18:21:39.080Z,64.33
2023-08-29T18:24:05.728Z,65.48
2023-08-29T18:26:32.907Z,64.69
2023-08-29T18:28:59.339Z,65.26
2023-08-29T18:31:25.702Z,66.35
2023-08-29T18:33:52.208Z,66.92
2023-08-29T18:36:18.563Z,67.89
2023-08-29T18:38:45.111Z,68.24
2023-08-29T18:41:11.502Z,68.10
2023-08-29T18:43:39.791Z,67.89
2023-08-29T18:46:08.146Z,69.38
2023-08-29T18:48:34.702Z,69.98
2023-08-29T18:51:01.138Z,71.05
2023-08-29T18:53:27.901Z,71.93
2023-08-29T18:55:54.386Z,72.24
2023-08-29T18:58:20.959Z,72.53
2023-08-29T19:00:47.442Z,72.19
2023-08-29T19:03:13.841Z,73.20
2023-08-29T19:05:41.082Z,73.84
2023-08-29T19:08:07.795Z,74.24
2023-08-29T19:10:34.562Z,76.28
2023-08-29T19:13:01.744Z,76.95
2023-08-29T19:15:28.211Z,77.08
2023-08-29T19:17:54.649Z,77.94
2023-08-29T19:20:21.158Z,75.49
2023-08-29T19:22:47.687Z,77.22
2023-08-29T19:25:14.148Z,78.36
2023-08-29T19:27:40.534Z,78.59
2023-08-29T19:30:09.802Z,78.67
2023-08-29T19:32:37.425Z,78.56
2023-08-29T19:35:05.046Z,78.20
2023-08-29T19:37:32.278Z,78.31
2023-08-29T19:39:58.685Z,78.76
2023-08-29T19:42:25.153Z,79.37
2023-08-29T19:44:52.094Z,78.47
2023-08-29T19:47:20.148Z,79.24
2023-08-29T19:49:48.406Z,78.18
2023-08-29T19:52:15.061Z,79.31
2023-08-29T19:54:42.061Z,77.97
2023-08-29T19:57:08.491Z,79.06
2023-08-29T19:59:36.355Z,79.41
2023-08-29T20:02:03.106Z,78.97
2023-08-29T20:04:29.621Z,79.06
2023-08-29T20:06:56.177Z,79.13
2023-08-29T20:09:23.626Z,80.04
2023-08-29T20:11:50.123Z,80.81
2023-08-29T20:14:16.545Z,80.48
2023-08-29T20:16:43.877Z,81.18
2023-08-29T20:19:10.659Z,82.61
2023-08-29T20:21:37.312Z,82.50
2023-08-29T20:24:04.614Z,82.63
2023-08-29T20:26:32.586Z,81.64
2023-08-29T20:29:00.701Z,81.03
2023-08-29T20:31:27.514Z,81.77
2023-08-29T20:33:54.150Z,82.00
2023-08-29T20:36:20.605Z,82.79
2023-08-29T20:38:47.102Z,80.84
2023-08-29T20:41:14.190Z,80.46
2023-08-29T20:43:40.704Z,80.33
2023-08-29T20:46:08.316Z,80.93
2023-08-29T20:48:35.072Z,81.33
2023-08-29T20:51:02.557Z,79.48
2023-08-29T20:53:31.939Z,80.85
2023-08-29T20:55:59.167Z,80.49
2023-08-29T20:58:27.186Z,81.28
2023-08-29T21:01:00.776Z,80.21
2023-08-29T21:03:29.100Z,80.58
2023-08-29T21:05:56.199Z,81.21
2023-08-29T21:08:24.110Z,81.26
2023-08-29T21:10:51.623Z,81.87
2023-08-29T21:13:18.132Z,83.38
2023-08-29T21:15:45.851Z,83.96
2023-08-29T21:18:16.397Z,83.55
2023-08-29T21:20:53.599Z,84.59
2023-08-29T21:23:20.006Z,84.91
2023-08-29T21:25:50.553Z,84.04
2023-08-29T21:28:18.122Z,83.50
2023-08-29T21:30:45.944Z,83.51
2023-08-29T21:33:13.229Z,84.20
2023-08-29T21:35:40.786Z,83.88
2023-08-29T21:38:08.485Z,83.37
2023-08-29T21:40:40.523Z,82.71
2023-08-29T21:43:11.731Z,83.92
2023-08-29T21:45:40.035Z,84.04
2023-08-29T21:48:08.211Z,83.67
2023-08-29T21:50:39.233Z,83.82
2023-08-29T21:53:10.592Z,84.39
2023-08-29T21:55:38.483Z,84.37
2023-08-29T21:58:06.347Z,83.50
2023-08-29T22:00:34.258Z,84.49
2023-08-29T22:03:02.266Z,83.33
2023-08-29T22:05:30.231Z,83.42
2023-08-29T22:07:57.392Z,83.67
2023-08-29T22:10:24.327Z,83.73
2023-08-29T22:12:51.280Z,83.73
2023-08-29T22:15:18.110Z,83.26
2023-08-29T22:17:46.137Z,83.57
2023-08-29T22:20:13.481Z,83.14
2023-08-29T22:22:40.421Z,84.17
2023-08-29T22:25:07.428Z,83.47
2023-08-29T22:27:33.918Z,83.45
2023-08-29T22:30:00.404Z,83.71
2023-08-29T22:32:26.967Z,83.07
2023-08-29T22:34:53.363Z,83.83
2023-08-29T22:37:19.847Z,84.44
2023-08-29T22:39:49.466Z,84.19
2023-08-29T22:42:16.961Z,84.57
2023-08-29T22:44:44.227Z,85.16
2023-08-29T22:47:11.441Z,84.84
2023-08-29T22:49:37.938Z,84.82
2023-08-29T22:52:04.823Z,84.28
2023-08-29T22:54:31.803Z,84.60
2023-08-29T22:56:59.096Z,83.66
2023-08-29T22:59:26.989Z,84.12
2023-08-29T23:01:54.340Z,85.02
2023-08-29T23:04:20.784Z,84.88
2023-08-29T23:06:47.173Z,84.27
2023-08-29T23:09:13.603Z,84.83
2023-08-29T23:11:40.824Z,84.18
2023-08-29T23:14:07.286Z,83.93
2023-08-29T23:16:33.848Z,85.24
2023-08-29T23:19:00.262Z,84.92
2023-08-29T23:21:26.659Z,84.98
2023-08-29T23:23:55.049Z,85.46
2023-08-29T23:26:21.560Z,85.73
2023-08-29T23:28:48.030Z,85.87
2023-08-29T23:31:14.452Z,85.89
2023-08-29T23:33:51.734Z,85.95
2023-08-29T23:36:18.992Z,86.05
2023-08-29T23:38:45.394Z,86.42
2023-08-29T23:41:14.366Z,86.58
2023-08-29T23:43:40.971Z,86.89
2023-08-29T23:46:07.641Z,87.12
2023-08-29T23:48:34.587Z,87.64
2023-08-29T23:51:02.065Z,88.11
2023-08-29T23:53:28.451Z,87.79
2023-08-29T23:55:54.906Z,88.91
2023-08-29T23:58:21.289Z,89.15
